ユジノサハリンスク の空港の天気 - METARとTAF

ホムトヴォ空港(ユジノサハリンスク) ( UHSS / UUS ) - ロシア ユジノサハリンスク
飛行場実況気象(Metar)
観測時間10/23 23:00 VLAT (10/23 13:00 UTC)
風向・風速西南西 1m/s
視程10km以上
天気現象
少しの雲 雲底高度 1220m
気温-1℃
湿度93%
気圧1007hPa
METARUHSS 231300Z 25001MPS 9999 FEW040 M01/M02 Q1007 RMK QFE754/1005
過去の天気等 Google飛行場航空写真 Wunderground天気予報

過去48時間のMETAR

飛行場予報(TAF)
発表時間: 10/23 21:00 VLAT (10/23 11:00 UTC)
予報対象時間: 23日22時 VLAT ~ 25日4時 VLAT
風向・風速北北西 4m/s
視程10km以上
全天の8割程度の積乱雲 雲底高度 460m
24日4時 VLAT ~ 24日7時 VLAT に徐々に
風向・風速西北西 7m/s
24日11時 VLAT ~ 24日13時 VLAT に徐々に
風向・風速西 6m/s 瞬間風速 11m/s
24日15時 VLAT ~ 24日16時 VLAT に徐々に
風向・風速西 5m/s
TAF UHSS 231100Z 2312/2418 34004MPS 9999 BKN015CB
BECMG 2318/2321 30007MPS
BECMG 2401/2403 27006G11MPS
BECMG 2405/2406 27005MPS